createdAt,value
2022-11-14T00:00:46.059Z,97.41
2022-11-14T00:01:55.349Z,92.77
2022-11-14T00:03:04.439Z,93.01
2022-11-14T00:04:13.650Z,96.43
2022-11-14T00:05:22.827Z,93.01
2022-11-14T00:06:32.002Z,93.5
2022-11-14T00:07:41.092Z,94.72
2022-11-14T00:08:50.352Z,92.52
2022-11-14T00:09:58.506Z,92.04
2022-11-14T00:11:07.628Z,91.79
2022-11-14T00:12:16.843Z,89.84
2022-11-14T00:13:26.047Z,89.59
2022-11-14T00:14:35.330Z,88.62
2022-11-14T00:15:44.347Z,87.15
2022-11-14T00:16:53.519Z,88.86
2022-11-14T00:18:02.755Z,87.15
2022-11-14T00:19:11.900Z,85.93
2022-11-14T00:20:21.029Z,84.47
2022-11-14T00:21:30.178Z,84.47
2022-11-14T00:22:39.357Z,83.98
2022-11-14T00:23:48.535Z,86.18
2022-11-14T00:24:56.710Z,86.66
2022-11-14T00:26:05.898Z,83.74
2022-11-14T00:27:15.056Z,83.25
2022-11-14T00:28:24.313Z,84.96
2022-11-14T00:29:33.562Z,83.74
2022-11-14T00:30:42.583Z,83.98
2022-11-14T00:31:51.754Z,84.47
2022-11-14T00:33:00.963Z,84.47
2022-11-14T00:34:10.160Z,84.71
2022-11-14T00:35:19.276Z,85.2
2022-11-14T00:36:28.446Z,84.22
2022-11-14T00:37:36.662Z,86.18
2022-11-14T00:38:44.847Z,85.2
2022-11-14T00:39:54.011Z,85.2
2022-11-14T00:41:03.203Z,85.93
2022-11-14T00:42:11.366Z,84.71
2022-11-14T00:43:19.591Z,87.15
2022-11-14T00:44:28.798Z,85.93
2022-11-14T00:45:37.914Z,86.91
2022-11-14T00:46:47.078Z,85.44
2022-11-14T00:47:56.374Z,85.2
2022-11-14T00:49:05.419Z,86.66
2022-11-14T00:50:14.608Z,86.42
2022-11-14T00:51:23.810Z,86.91
2022-11-14T00:52:32.944Z,89.35
2022-11-14T00:53:42.136Z,90.82
2022-11-14T00:54:51.284Z,88.13
2022-11-14T00:56:00.535Z,89.59
2022-11-14T00:57:09.661Z,92.04
2022-11-14T00:58:17.833Z,89.35
2022-11-14T00:59:27.011Z,90.33
2022-11-14T01:00:36.177Z,93.5
2022-11-14T01:01:45.412Z,93.75
2022-11-14T01:02:54.648Z,91.3
2022-11-14T01:04:03.697Z,94.48
2022-11-14T01:05:12.903Z,95.45
2022-11-14T01:06:21.085Z,95.21
2022-11-14T01:07:29.365Z,95.94
2022-11-14T01:08:37.454Z,97.41
2022-11-14T01:09:45.663Z,94.72
2022-11-14T01:10:54.820Z,98.63
2022-11-14T01:12:04.034Z,94.97
2022-11-14T01:13:13.165Z,101.07
2022-11-14T01:14:22.325Z,98.87
2022-11-14T01:15:31.492Z,98.63
2022-11-14T01:16:40.781Z,97.16
2022-11-14T01:17:49.910Z,97.16
2022-11-14T01:18:59.009Z,96.92
2022-11-14T01:20:08.193Z,96.43
2022-11-14T01:21:17.355Z,96.92
2022-11-14T01:22:26.711Z,93.01
2022-11-14T01:23:35.707Z,94.23
2022-11-14T01:24:43.895Z,96.92
2022-11-14T01:25:53.200Z,94.48
2022-11-14T01:27:02.367Z,95.7
2022-11-14T01:28:11.444Z,94.97
2022-11-14T01:29:20.662Z,93.99
2022-11-14T01:30:29.764Z,95.21
2022-11-14T01:31:38.932Z,94.23
2022-11-14T01:32:47.162Z,95.7
2022-11-14T01:33:55.343Z,94.48
2022-11-14T01:35:03.605Z,93.75
2022-11-14T01:36:11.703Z,93.99
2022-11-14T01:37:20.939Z,94.23
2022-11-14T01:38:30.052Z,95.7
2022-11-14T01:39:39.223Z,90.82
2022-11-14T01:40:48.436Z,93.99
2022-11-14T01:41:57.564Z,93.75
2022-11-14T01:43:06.740Z,95.7
2022-11-14T01:44:15.907Z,93.99
2022-11-14T01:45:25.215Z,92.04
2022-11-14T01:46:34.337Z,93.01
2022-11-14T01:47:43.466Z,91.55
2022-11-14T01:48:52.603Z,95.94
2022-11-14T01:50:01.776Z,92.28
2022-11-14T01:51:09.988Z,93.01
2022-11-14T01:52:19.139Z,92.77
2022-11-14T01:53:28.312Z,91.3
2022-11-14T01:54:37.491Z,90.08
2022-11-14T01:55:46.665Z,91.3
2022-11-14T01:56:55.901Z,89.84
2022-11-14T01:58:05.021Z,89.84
2022-11-14T01:59:13.194Z,89.84
2022-11-14T02:00:21.397Z,90.33
2022-11-14T02:01:29.583Z,88.62
2022-11-14T02:02:37.797Z,89.35
2022-11-14T02:03:46.948Z,91.3
2022-11-14T02:04:56.145Z,89.84
2022-11-14T02:07:14.488Z,88.13
2022-11-14T02:08:23.711Z,86.91
2022-11-14T02:09:32.809Z,87.89
2022-11-14T02:10:41.056Z,87.4
2022-11-14T02:11:50.179Z,85.44
2022-11-14T02:12:59.440Z,85.44
2022-11-14T02:14:08.588Z,86.18
2022-11-14T02:15:17.702Z,86.18
2022-11-14T02:16:26.877Z,86.18
2022-11-14T02:17:36.073Z,87.15
2022-11-14T02:18:45.223Z,85.2
2022-11-14T02:19:54.416Z,85.2
2022-11-14T02:21:03.695Z,83.98
2022-11-14T02:22:12.724Z,85.2
2022-11-14T02:23:21.915Z,84.47
2022-11-14T02:24:31.146Z,85.44
2022-11-14T02:25:39.275Z,85.69
2022-11-14T02:26:47.507Z,85.44
2022-11-14T02:27:55.741Z,86.42
2022-11-14T02:30:14.067Z,86.42
2022-11-14T02:31:22.268Z,85.69
2022-11-14T02:32:30.606Z,83.98
2022-11-14T02:33:39.567Z,83.74
2022-11-14T02:34:48.726Z,84.96
2022-11-14T02:35:57.991Z,84.47
2022-11-14T02:37:07.148Z,84.22
2022-11-14T02:38:16.241Z,84.47
2022-11-14T02:39:25.480Z,87.64
2022-11-14T02:40:34.606Z,85.44
2022-11-14T02:41:43.774Z,83.25
2022-11-14T02:42:52.956Z,84.22
2022-11-14T02:44:02.122Z,83.25
2022-11-14T02:45:11.287Z,82.76
2022-11-14T02:46:20.476Z,84.71
2022-11-14T02:47:29.768Z,82.76
2022-11-14T02:48:38.806Z,83.98
2022-11-14T02:49:47.074Z,83.98
2022-11-14T02:50:56.293Z,83.25
2022-11-14T02:52:05.368Z,82.51
2022-11-14T02:53:14.535Z,81.29
2022-11-14T02:54:23.692Z,82.76
2022-11-14T02:55:31.893Z,84.47
2022-11-14T02:56:40.083Z,83.98
2022-11-14T02:57:48.301Z,84.96
2022-11-14T02:58:56.442Z,84.22
2022-11-14T03:00:05.627Z,85.44
2022-11-14T03:01:14.810Z,86.42
2022-11-14T03:02:24.048Z,86.91
2022-11-14T03:03:33.227Z,84.47
2022-11-14T03:04:42.395Z,86.66
2022-11-14T03:05:51.611Z,86.91
2022-11-14T03:07:00.693Z,85.44
2022-11-14T03:08:09.858Z,85.2
2022-11-14T03:09:19.008Z,87.15
2022-11-14T03:10:28.178Z,86.18
2022-11-14T03:11:37.346Z,85.2
2022-11-14T03:12:46.532Z,84.71
2022-11-14T03:13:54.710Z,87.64
2022-11-14T03:15:04.021Z,89.11
2022-11-14T03:16:13.137Z,87.4
2022-11-14T03:17:22.263Z,88.13
2022-11-14T03:18:31.428Z,87.89
2022-11-14T03:19:40.612Z,88.62
2022-11-14T03:20:49.856Z,92.04
2022-11-14T03:21:58.060Z,90.08
2022-11-14T03:23:06.144Z,89.11
2022-11-14T03:24:14.367Z,88.62
2022-11-14T03:25:22.529Z,90.82
2022-11-14T03:26:31.696Z,90.08
2022-11-14T03:27:40.885Z,92.04
2022-11-14T03:28:50.126Z,90.82
2022-11-14T03:29:59.220Z,91.55
2022-11-14T03:31:08.384Z,92.52
2022-11-14T03:32:17.584Z,93.75
2022-11-14T03:33:26.766Z,93.75
2022-11-14T03:34:35.916Z,93.75
2022-11-14T03:35:45.071Z,94.48
2022-11-14T03:36:54.401Z,94.48
2022-11-14T03:38:03.422Z,95.7
2022-11-14T03:39:12.629Z,93.75
2022-11-14T03:40:20.802Z,92.77
2022-11-14T03:41:29.963Z,95.94
2022-11-14T03:42:39.122Z,96.19
2022-11-14T03:43:48.372Z,93.5
2022-11-14T03:44:57.478Z,92.52
2022-11-14T03:46:06.706Z,95.45
2022-11-14T03:47:15.828Z,95.45
2022-11-14T03:48:24.009Z,94.48
2022-11-14T03:49:32.238Z,91.55
2022-11-14T03:50:40.396Z,93.5
2022-11-14T03:51:48.605Z,94.48
2022-11-14T03:52:57.837Z,90.08
2022-11-14T03:54:06.941Z,91.3
2022-11-14T03:55:16.111Z,92.28
2022-11-14T03:56:25.299Z,93.5
2022-11-14T03:57:34.468Z,90.33
2022-11-14T03:58:43.624Z,90.82
2022-11-14T03:59:52.810Z,89.35
2022-11-14T04:01:02.041Z,90.33
2022-11-14T04:02:11.162Z,93.01
2022-11-14T04:03:20.320Z,88.37
2022-11-14T04:04:29.515Z,87.89
2022-11-14T04:05:38.656Z,88.37
2022-11-14T04:06:46.856Z,87.4
2022-11-14T04:07:56.024Z,88.86
2022-11-14T04:09:05.250Z,85.93
2022-11-14T04:10:14.377Z,87.64
2022-11-14T04:11:23.657Z,88.13
2022-11-14T04:12:32.710Z,86.42
2022-11-14T04:13:41.899Z,86.18
2022-11-14T04:14:50.090Z,86.91
2022-11-14T04:15:58.351Z,84.96
2022-11-14T04:17:07.450Z,84.96
2022-11-14T04:18:16.609Z,84.47
2022-11-14T04:19:25.793Z,83.49
2022-11-14T04:20:34.994Z,85.2
2022-11-14T04:21:44.187Z,83.25
2022-11-14T04:22:53.377Z,83.74
2022-11-14T04:24:02.566Z,83.74
2022-11-14T04:25:11.679Z,83.74
2022-11-14T04:26:20.852Z,83.98
2022-11-14T04:27:30.077Z,84.96
2022-11-14T04:28:39.184Z,83.25
2022-11-14T04:29:48.351Z,84.47
2022-11-14T04:30:56.563Z,85.2
2022-11-14T04:32:05.709Z,83.98
2022-11-14T04:33:14.905Z,84.96
2022-11-14T04:34:24.059Z,82.51
2022-11-14T04:35:33.237Z,81.29
2022-11-14T04:36:42.412Z,83.25
2022-11-14T04:37:51.579Z,83.25
2022-11-14T04:38:59.774Z,87.15
2022-11-14T04:40:07.980Z,84.71
2022-11-14T04:41:17.134Z,97.41
2022-11-14T04:42:25.431Z,85.2
2022-11-14T04:43:33.512Z,100.58
2022-11-14T04:44:42.691Z,87.4
2022-11-14T04:45:50.982Z,88.62
2022-11-14T04:46:59.228Z,86.18
2022-11-14T04:48:08.315Z,86.66
2022-11-14T04:49:17.574Z,85.69
2022-11-14T04:50:26.587Z,85.93
2022-11-14T04:51:35.802Z,91.79
2022-11-14T04:52:44.977Z,88.37
2022-11-14T04:53:54.232Z,90.57
2022-11-14T04:55:03.384Z,89.35
2022-11-14T04:56:12.457Z,90.08
2022-11-14T04:57:21.766Z,97.65
2022-11-14T04:58:30.877Z,92.77
2022-11-14T04:59:40.009Z,90.82
2022-11-14T05:01:58.322Z,90.33
2022-11-14T05:03:06.539Z,90.33
2022-11-14T05:05:24.934Z,94.23
2022-11-14T05:06:33.058Z,93.01
2022-11-14T05:07:41.262Z,92.04
2022-11-14T05:08:50.492Z,93.01
2022-11-14T05:09:59.734Z,93.01
2022-11-14T05:11:08.768Z,91.3
2022-11-14T05:12:17.952Z,92.28
2022-11-14T05:13:27.144Z,92.28
2022-11-14T05:14:36.296Z,90.33
2022-11-14T05:15:45.460Z,91.06
2022-11-14T05:16:54.632Z,91.55
2022-11-14T05:18:03.949Z,90.82
2022-11-14T05:19:12.114Z,91.55
2022-11-14T05:20:20.241Z,90.33
2022-11-14T05:21:29.428Z,91.79
2022-11-14T05:22:38.617Z,91.06
2022-11-14T05:23:47.784Z,90.57
2022-11-14T05:24:56.947Z,90.82
2022-11-14T05:26:06.070Z,90.82
2022-11-14T05:27:15.294Z,89.11
2022-11-14T05:28:24.497Z,91.06
2022-11-14T05:29:33.577Z,89.59
2022-11-14T05:30:42.749Z,92.04
2022-11-14T05:31:51.989Z,90.82
2022-11-14T05:33:01.161Z,91.3
2022-11-14T05:34:10.404Z,91.3
2022-11-14T05:35:18.535Z,92.28
2022-11-14T05:36:27.652Z,92.28
2022-11-14T05:37:36.806Z,91.55
2022-11-14T05:38:45.974Z,91.79
2022-11-14T05:39:55.141Z,92.52
2022-11-14T05:41:04.329Z,93.75
2022-11-14T05:42:13.488Z,93.5
2022-11-14T05:43:21.743Z,92.77
2022-11-14T05:44:29.878Z,93.75
2022-11-14T05:45:39.069Z,103.27
2022-11-14T05:46:47.257Z,96.67
2022-11-14T05:47:55.435Z,94.23
2022-11-14T05:49:04.609Z,94.72
2022-11-14T05:50:13.785Z,95.45
2022-11-14T05:51:23.081Z,94.97
2022-11-14T05:52:32.245Z,95.21
2022-11-14T05:53:41.330Z,94.97
2022-11-14T05:54:50.480Z,95.7
2022-11-14T05:55:59.652Z,96.92
2022-11-14T05:57:08.875Z,98.87
2022-11-14T05:58:17.996Z,99.12
2022-11-14T05:59:27.197Z,99.12
2022-11-14T06:00:36.333Z,97.9
2022-11-14T06:01:44.537Z,99.12
2022-11-14T06:02:53.714Z,99.6
2022-11-14T06:04:02.893Z,98.38
2022-11-14T06:05:12.059Z,98.63
2022-11-14T06:06:21.227Z,100.34
2022-11-14T06:07:30.419Z,98.63
2022-11-14T06:08:39.584Z,97.9
2022-11-14T06:09:48.870Z,101.07
2022-11-14T06:10:57.100Z,100.09
2022-11-14T06:12:05.131Z,98.63
2022-11-14T06:13:14.356Z,97.41
2022-11-14T06:14:23.487Z,95.94
2022-11-14T06:15:32.725Z,100.09
2022-11-14T06:16:41.828Z,100.58
2022-11-14T06:17:51.001Z,96.92
2022-11-14T06:19:00.173Z,99.36
2022-11-14T06:20:09.347Z,97.9
2022-11-14T06:21:18.560Z,116.94
2022-11-14T06:22:27.700Z,109.86
2022-11-14T06:23:36.987Z,110.59
2022-11-14T06:24:46.102Z,108.88
2022-11-14T06:25:55.321Z,117.67
2022-11-14T06:27:03.407Z,115.72
2022-11-14T06:28:12.623Z,116.69
2022-11-14T06:29:21.746Z,111.32
2022-11-14T06:30:30.926Z,114.99
2022-11-14T06:31:40.101Z,108.64
2022-11-14T06:32:49.287Z,108.39
2022-11-14T06:33:58.436Z,118.16
2022-11-14T06:35:06.649Z,106.93
2022-11-14T06:36:15.856Z,107.17
2022-11-14T06:37:24.027Z,106.44
2022-11-14T06:38:33.294Z,107.17
2022-11-14T06:39:41.372Z,106.44
2022-11-14T06:40:50.544Z,105.95
2022-11-14T06:41:59.710Z,105.95
2022-11-14T06:43:08.888Z,103.51
2022-11-14T06:44:18.141Z,104.24
2022-11-14T06:45:27.321Z,105.46
2022-11-14T06:46:36.475Z,105.46
2022-11-14T06:47:45.581Z,104.73
2022-11-14T06:48:54.813Z,105.46
2022-11-14T06:50:03.950Z,102.53
2022-11-14T06:51:13.143Z,103.02
2022-11-14T06:52:22.276Z,97.16
2022-11-14T06:53:31.528Z,96.19
2022-11-14T06:54:39.716Z,103.27
2022-11-14T06:55:48.809Z,99.85
2022-11-14T06:56:58.019Z,105.22
2022-11-14T06:58:07.161Z,103.51
2022-11-14T06:59:16.357Z,104.73
2022-11-14T07:00:25.500Z,106.2
2022-11-14T07:01:33.775Z,106.2
2022-11-14T07:02:41.890Z,104.73
2022-11-14T07:03:51.063Z,104
2022-11-14T07:04:59.392Z,104.49
2022-11-14T07:06:07.461Z,104
2022-11-14T07:07:16.691Z,105.71
2022-11-14T07:08:25.826Z,109.13
2022-11-14T07:09:35.060Z,104.24
2022-11-14T07:10:44.210Z,105.22
2022-11-14T07:11:53.519Z,104.73
2022-11-14T07:13:02.526Z,111.81
2022-11-14T07:14:11.707Z,101.31
2022-11-14T07:15:20.996Z,101.31
2022-11-14T07:16:30.077Z,100.58
2022-11-14T07:17:39.178Z,100.09
2022-11-14T07:18:48.475Z,104
2022-11-14T07:19:57.529Z,111.08
2022-11-14T07:21:05.788Z,103.75
2022-11-14T07:22:14.933Z,105.46
2022-11-14T07:23:24.082Z,103.27
2022-11-14T07:24:33.339Z,102.53
2022-11-14T07:25:42.417Z,105.22
2022-11-14T07:26:51.580Z,115.23
2022-11-14T07:28:00.752Z,108.15
2022-11-14T07:29:09.102Z,101.31
2022-11-14T07:30:17.180Z,115.96
2022-11-14T07:31:25.365Z,97.9
2022-11-14T07:32:33.567Z,98.63
2022-11-14T07:33:42.740Z,99.36
2022-11-14T07:34:51.913Z,104
2022-11-14T07:36:01.067Z,105.95
2022-11-14T07:37:10.228Z,119.38
2022-11-14T07:38:19.471Z,102.05
2022-11-14T07:39:28.555Z,101.8
2022-11-14T07:40:37.737Z,102.78
2022-11-14T07:41:46.904Z,102.78
2022-11-14T07:42:56.081Z,102.53
2022-11-14T07:44:05.249Z,105.46
2022-11-14T07:45:14.437Z,108.64
2022-11-14T07:46:23.773Z,106.68
2022-11-14T07:47:31.922Z,111.32
2022-11-14T07:48:40.955Z,106.2
2022-11-14T07:49:50.139Z,103.51
2022-11-14T07:50:59.399Z,104.73
2022-11-14T07:52:08.477Z,105.22
2022-11-14T07:53:17.658Z,107.42
2022-11-14T07:54:26.935Z,105.46
2022-11-14T07:55:35.012Z,109.13
2022-11-14T07:56:43.285Z,104
2022-11-14T07:57:52.408Z,104.24
2022-11-14T07:59:00.567Z,104.24
2022-11-14T08:00:08.859Z,105.46
2022-11-14T08:01:17.930Z,105.71
2022-11-14T08:02:27.197Z,103.27
2022-11-14T08:03:36.275Z,105.95
2022-11-14T08:04:45.502Z,104.24
2022-11-14T08:05:54.619Z,104.49
2022-11-14T08:07:04.006Z,104.73
2022-11-14T08:08:13.009Z,105.71
2022-11-14T08:09:22.202Z,108.64
2022-11-14T08:10:31.323Z,104.49
2022-11-14T08:11:40.544Z,105.22
2022-11-14T08:12:49.804Z,106.93
2022-11-14T08:13:58.860Z,104
2022-11-14T08:15:08.160Z,105.22
2022-11-14T08:16:16.347Z,104.49
2022-11-14T08:17:25.374Z,104.73
2022-11-14T08:18:34.728Z,109.13
2022-11-14T08:19:43.868Z,104.49
2022-11-14T08:20:52.990Z,106.44
2022-11-14T08:22:02.129Z,105.22
2022-11-14T08:23:11.235Z,105.71
2022-11-14T08:24:19.610Z,110.59
2022-11-14T08:25:27.700Z,107.17
2022-11-14T08:26:36.899Z,105.22
2022-11-14T08:27:45.115Z,125
2022-11-14T08:28:54.155Z,115.23
2022-11-14T08:30:02.341Z,111.32
2022-11-14T08:31:11.599Z,114.01
2022-11-14T08:32:20.689Z,115.96
2022-11-14T08:33:29.974Z,111.32
2022-11-14T08:34:39.199Z,108.88
2022-11-14T08:35:48.577Z,108.88
2022-11-14T08:36:57.560Z,111.08
2022-11-14T08:38:06.719Z,109.86
2022-11-14T08:39:15.852Z,109.37
2022-11-14T08:40:24.890Z,109.86
2022-11-14T08:41:34.071Z,111.81
2022-11-14T08:42:43.275Z,109.13
2022-11-14T08:43:52.512Z,109.61
2022-11-14T08:45:00.636Z,110.1
2022-11-14T08:46:09.784Z,107.42
2022-11-14T08:47:18.939Z,107.91
2022-11-14T08:48:28.131Z,109.61
2022-11-14T08:49:37.472Z,107.66
2022-11-14T08:50:46.636Z,105.71
2022-11-14T08:51:54.782Z,106.68
2022-11-14T08:53:03.021Z,107.66
2022-11-14T08:54:11.048Z,107.17
2022-11-14T08:55:19.226Z,105.95
2022-11-14T08:56:28.410Z,103.51
2022-11-14T08:57:37.573Z,124.02
2022-11-14T08:58:46.745Z,105.22
2022-11-14T08:59:55.922Z,106.2
2022-11-14T09:01:05.239Z,104.73
2022-11-14T09:02:14.258Z,108.88
2022-11-14T09:03:23.600Z,104.73
2022-11-14T09:04:32.805Z,146.24
2022-11-14T09:05:41.873Z,108.64
2022-11-14T09:06:50.956Z,108.15
2022-11-14T09:08:00.129Z,112.79
2022-11-14T09:09:09.319Z,118.65
2022-11-14T09:10:17.554Z,107.91
2022-11-14T09:11:26.661Z,108.15
2022-11-14T09:12:35.834Z,112.06
2022-11-14T09:13:45.004Z,123.29
2022-11-14T09:14:54.171Z,107.17
2022-11-14T09:16:03.358Z,109.86
2022-11-14T09:17:12.516Z,109.61
2022-11-14T09:18:20.715Z,108.88
2022-11-14T09:19:28.905Z,109.86
2022-11-14T09:20:37.112Z,108.64
2022-11-14T09:21:45.277Z,108.88
2022-11-14T09:22:54.595Z,107.17
2022-11-14T09:24:03.623Z,109.86
2022-11-14T09:26:22.139Z,108.64
2022-11-14T09:27:31.340Z,108.39
2022-11-14T09:28:40.336Z,106.68
2022-11-14T09:29:49.490Z,105.46
2022-11-14T09:30:58.665Z,109.61
2022-11-14T09:32:07.836Z,104.98
2022-11-14T09:33:17.017Z,105.71
2022-11-14T09:34:26.178Z,104.73
2022-11-14T09:36:44.679Z,104.24
2022-11-14T09:37:53.794Z,104
2022-11-14T09:40:11.105Z,106.44
2022-11-14T09:41:19.262Z,107.17
2022-11-14T09:42:27.436Z,106.68
2022-11-14T09:43:36.628Z,103.75
2022-11-14T09:44:45.940Z,104
2022-11-14T09:45:55.088Z,107.17
2022-11-14T09:47:04.130Z,104
2022-11-14T09:49:22.478Z,104.98
2022-11-14T09:50:31.656Z,107.42
2022-11-14T09:51:40.818Z,110.35
2022-11-14T09:52:49.012Z,107.66
2022-11-14T09:53:58.207Z,106.2
2022-11-14T09:55:07.428Z,104.98
2022-11-14T09:56:16.541Z,106.2
2022-11-14T09:57:25.711Z,104
2022-11-14T09:58:34.883Z,110.59
2022-11-14T09:59:44.045Z,108.15
2022-11-14T10:00:53.234Z,110.83
2022-11-14T10:02:02.393Z,107.17
2022-11-14T10:03:11.609Z,105.95
2022-11-14T10:04:20.749Z,104.73
2022-11-14T10:05:29.921Z,107.91
2022-11-14T10:06:38.107Z,108.88
2022-11-14T10:07:46.297Z,107.42
2022-11-14T10:08:54.504Z,109.61
2022-11-14T10:10:02.679Z,105.46
2022-11-14T10:11:11.855Z,109.13
2022-11-14T10:12:21.019Z,107.17
2022-11-14T10:13:30.190Z,110.35
2022-11-14T10:14:39.449Z,110.1
2022-11-14T10:15:48.563Z,110.83
2022-11-14T10:16:57.806Z,109.86
2022-11-14T10:18:07.057Z,109.37
2022-11-14T10:19:16.061Z,112.06
2022-11-14T10:20:25.236Z,110.1
2022-11-14T10:21:34.406Z,111.32
2022-11-14T10:22:43.572Z,108.88
2022-11-14T10:23:52.745Z,115.23
2022-11-14T10:25:00.924Z,112.06
2022-11-14T10:26:10.089Z,108.64
2022-11-14T10:27:19.285Z,106.44
2022-11-14T10:28:28.453Z,107.17
2022-11-14T10:29:37.625Z,108.88
2022-11-14T10:30:46.792Z,104.73
2022-11-14T10:31:55.976Z,109.61
2022-11-14T10:33:04.168Z,107.17
2022-11-14T10:34:12.357Z,108.64
2022-11-14T10:35:21.533Z,110.59
2022-11-14T10:36:30.701Z,102.05
2022-11-14T10:37:38.892Z,105.71
2022-11-14T10:38:47.089Z,106.44
2022-11-14T10:39:56.263Z,102.53
2022-11-14T10:41:05.426Z,99.12
2022-11-14T10:42:14.590Z,109.13
2022-11-14T10:43:23.780Z,100.58
2022-11-14T10:44:32.940Z,101.07
2022-11-14T10:45:42.113Z,102.29
2022-11-14T10:46:51.294Z,107.91
2022-11-14T10:48:00.451Z,119.62
2022-11-14T10:49:09.638Z,101.8
2022-11-14T10:50:18.802Z,99.85
2022-11-14T10:51:27.978Z,108.39
2022-11-14T10:52:37.153Z,101.8
2022-11-14T10:53:45.340Z,105.95
2022-11-14T10:54:54.515Z,112.79
2022-11-14T10:56:03.714Z,106.68
2022-11-14T10:57:12.868Z,107.91
2022-11-14T10:58:22.014Z,109.86
2022-11-14T10:59:31.187Z,109.61
2022-11-14T11:00:40.372Z,109.61
2022-11-14T11:01:48.662Z,110.35
2022-11-14T11:02:56.749Z,110.59
2022-11-14T11:04:05.924Z,110.1
2022-11-14T11:05:14.127Z,110.59
2022-11-14T11:06:22.313Z,110.59
2022-11-14T11:07:31.478Z,110.59
2022-11-14T11:08:40.655Z,108.64
2022-11-14T11:09:49.821Z,110.59
2022-11-14T11:10:59.002Z,110.1
2022-11-14T11:12:08.176Z,108.64
2022-11-14T11:13:17.338Z,118.16
2022-11-14T11:14:26.593Z,108.15
2022-11-14T11:15:35.688Z,122.07
2022-11-14T11:16:44.856Z,111.32
2022-11-14T11:17:54.029Z,104.73
2022-11-14T11:19:03.210Z,107.17
2022-11-14T11:20:12.386Z,110.59
2022-11-14T11:21:20.578Z,105.46
2022-11-14T11:22:29.783Z,116.45
2022-11-14T11:23:38.994Z,114.01
2022-11-14T11:24:48.138Z,107.42
2022-11-14T11:25:57.268Z,106.44
2022-11-14T11:27:06.482Z,104.98
2022-11-14T11:28:15.590Z,106.93
2022-11-14T11:29:23.789Z,107.42
2022-11-14T11:30:31.981Z,107.17
2022-11-14T11:31:40.186Z,103.02
2022-11-14T11:32:48.380Z,106.44
2022-11-14T11:33:57.526Z,108.88
2022-11-14T11:35:06.705Z,121.33
2022-11-14T11:36:15.876Z,104.73
2022-11-14T11:37:25.096Z,111.32
2022-11-14T11:38:34.220Z,114.99
2022-11-14T11:39:43.405Z,115.96
2022-11-14T11:40:52.568Z,110.1
2022-11-14T11:42:01.736Z,107.66
2022-11-14T11:43:10.935Z,108.15
2022-11-14T11:44:20.232Z,123.29
2022-11-14T11:45:29.465Z,104.73
2022-11-14T11:46:38.515Z,107.17
2022-11-14T11:47:46.651Z,105.22
2022-11-14T11:48:55.793Z,104
2022-11-14T11:50:04.956Z,105.22
2022-11-14T11:51:14.138Z,104.73
2022-11-14T11:52:23.311Z,108.39
2022-11-14T11:53:32.470Z,107.66
2022-11-14T11:54:41.729Z,111.32
2022-11-14T11:55:49.984Z,105.22
2022-11-14T11:56:58.174Z,107.17
2022-11-14T11:58:07.393Z,104.98
2022-11-14T11:59:16.430Z,107.91
2022-11-14T12:00:24.571Z,105.95
2022-11-14T12:01:32.771Z,102.29
2022-11-14T12:02:41.932Z,101.56
2022-11-14T12:03:51.130Z,98.38
2022-11-14T12:05:00.276Z,100.34
2022-11-14T12:06:09.451Z,97.16
2022-11-14T12:07:18.625Z,96.92
2022-11-14T12:08:27.787Z,98.63
2022-11-14T12:09:36.980Z,104
2022-11-14T12:10:46.136Z,97.9
2022-11-14T12:11:55.313Z,99.85
2022-11-14T12:13:04.487Z,100.58
2022-11-14T12:14:13.679Z,95.7
2022-11-14T12:16:32.009Z,97.41
2022-11-14T12:17:40.194Z,98.87
2022-11-14T12:18:49.353Z,102.53
2022-11-14T12:19:58.537Z,100.09
2022-11-14T12:21:07.716Z,106.93
2022-11-14T12:22:16.875Z,107.91
2022-11-14T12:23:26.046Z,107.91
2022-11-14T12:24:35.219Z,107.17
2022-11-14T12:25:43.411Z,98.63
2022-11-14T12:26:51.604Z,96.92
2022-11-14T12:28:00.774Z,97.65
2022-11-14T12:29:09.945Z,99.36
2022-11-14T12:30:18.136Z,104
2022-11-14T12:31:26.327Z,102.78
2022-11-14T12:32:35.498Z,105.22
2022-11-14T12:33:44.665Z,125.97
2022-11-14T12:34:53.899Z,105.71
2022-11-14T12:36:03.056Z,122.31
2022-11-14T12:37:12.218Z,106.68
2022-11-14T12:38:21.478Z,104.24
2022-11-14T12:39:30.534Z,102.78
2022-11-14T12:40:39.700Z,104.73
2022-11-14T12:41:48.871Z,107.66
2022-11-14T12:42:58.042Z,103.75
2022-11-14T12:44:07.222Z,105.95
2022-11-14T12:45:16.383Z,105.46
2022-11-14T12:46:24.581Z,104.98
2022-11-14T12:47:33.772Z,115.23
2022-11-14T12:48:42.918Z,110.59
2022-11-14T12:49:52.097Z,104.49
2022-11-14T12:51:01.283Z,106.44
2022-11-14T12:52:10.434Z,106.2
2022-11-14T12:53:19.605Z,104
2022-11-14T12:54:27.804Z,106.2
2022-11-14T12:55:36.000Z,106.68
2022-11-14T12:56:44.191Z,106.68
2022-11-14T12:57:52.372Z,105.95
2022-11-14T12:59:01.544Z,111.08
2022-11-14T13:00:10.715Z,105.71
2022-11-14T13:01:19.885Z,104.24
2022-11-14T13:02:29.067Z,117.91
2022-11-14T13:03:38.228Z,106.44
2022-11-14T13:04:47.412Z,105.95
2022-11-14T13:05:56.578Z,107.17
2022-11-14T13:07:05.763Z,118.65
2022-11-14T13:08:14.923Z,107.91
2022-11-14T13:09:24.085Z,108.64
2022-11-14T13:10:33.264Z,107.42
2022-11-14T13:11:42.437Z,104.98
2022-11-14T13:12:50.627Z,112.06
2022-11-14T13:13:59.799Z,105.95
2022-11-14T13:15:08.952Z,104
2022-11-14T13:16:18.165Z,103.27
2022-11-14T13:17:27.308Z,103.75
2022-11-14T13:18:36.481Z,112.06
2022-11-14T13:19:45.654Z,109.86
2022-11-14T13:20:53.855Z,103.02
2022-11-14T13:22:02.037Z,104.73
2022-11-14T13:23:10.245Z,105.71
2022-11-14T13:24:18.439Z,104
2022-11-14T13:25:27.585Z,104.24
2022-11-14T13:26:36.760Z,114.99
2022-11-14T13:27:45.933Z,113.03
2022-11-14T13:28:55.101Z,112.54
2022-11-14T13:30:04.280Z,109.13
2022-11-14T13:31:13.439Z,115.23
2022-11-14T13:32:22.614Z,110.83
2022-11-14T13:33:31.791Z,112.3
2022-11-14T13:34:40.957Z,112.06
2022-11-14T13:35:50.184Z,109.13
2022-11-14T13:36:59.306Z,110.83
2022-11-14T13:38:08.494Z,111.08
2022-11-14T13:39:17.811Z,109.61
2022-11-14T13:40:25.970Z,108.88
2022-11-14T13:41:35.084Z,97.16
2022-11-14T13:42:44.277Z,99.12
2022-11-14T13:43:52.379Z,90.82
2022-11-14T13:45:01.559Z,92.77
2022-11-14T13:46:10.736Z,95.45
2022-11-14T13:47:18.920Z,91.79
2022-11-14T13:48:27.104Z,93.75
2022-11-14T13:49:36.275Z,89.59
2022-11-14T13:50:45.445Z,92.52
2022-11-14T13:51:54.617Z,96.92
2022-11-14T13:53:03.784Z,94.48
2022-11-14T13:54:12.971Z,98.63
2022-11-14T13:55:21.165Z,103.51
2022-11-14T13:56:29.343Z,111.81
2022-11-14T13:57:38.515Z,108.39
2022-11-14T13:58:47.682Z,107.91
2022-11-14T14:01:06.025Z,103.51
2022-11-14T14:02:15.204Z,101.8
2022-11-14T14:03:24.367Z,106.2
2022-11-14T14:04:33.553Z,105.71
2022-11-14T14:05:42.733Z,107.17
2022-11-14T14:06:51.886Z,113.76
2022-11-14T14:08:01.086Z,113.28
2022-11-14T14:09:10.249Z,114.74
2022-11-14T14:10:19.412Z,114.74
2022-11-14T14:11:27.597Z,114.01
2022-11-14T14:12:36.773Z,113.28
2022-11-14T14:13:45.956Z,112.79
2022-11-14T14:14:55.113Z,110.1
2022-11-14T14:16:04.301Z,109.61
2022-11-14T14:17:13.472Z,108.15
2022-11-14T14:18:22.622Z,115.72
2022-11-14T14:19:31.809Z,112.54
2022-11-14T14:20:39.995Z,112.79
2022-11-14T14:21:48.198Z,112.79
2022-11-14T14:22:57.366Z,110.83
2022-11-14T14:24:06.531Z,105.71
2022-11-14T14:25:14.728Z,101.8
2022-11-14T14:26:22.912Z,104
2022-11-14T14:27:32.081Z,105.22
2022-11-14T14:28:41.246Z,100.83
2022-11-14T14:29:50.423Z,103.27
2022-11-14T14:30:59.605Z,107.66
2022-11-14T14:32:08.792Z,113.76
2022-11-14T14:33:17.954Z,104.49
2022-11-14T14:34:27.172Z,99.6
2022-11-14T14:35:36.285Z,103.75
2022-11-14T14:36:45.492Z,117.43
2022-11-14T14:37:54.633Z,101.31
2022-11-14T14:39:03.806Z,97.9
2022-11-14T14:40:12.976Z,99.6
2022-11-14T14:41:21.216Z,97.65
2022-11-14T14:42:30.390Z,98.87
2022-11-14T14:43:39.506Z,111.32
2022-11-14T14:44:48.676Z,101.31
2022-11-14T14:45:57.855Z,97.9
2022-11-14T14:47:07.039Z,99.85
2022-11-14T14:48:16.249Z,98.38
2022-11-14T14:49:24.388Z,101.31